createdAt,value
2023-02-14T00:01:12.372Z,3.50
2023-02-14T00:03:39.481Z,3.50
2023-02-14T00:06:12.621Z,3.20
2023-02-14T00:08:40.875Z,3.58
2023-02-14T00:11:08.957Z,3.35
2023-02-14T00:13:35.435Z,3.50
2023-02-14T00:16:02.002Z,3.55
2023-02-14T00:18:48.461Z,3.42
2023-02-14T00:21:14.948Z,3.70
2023-02-14T00:23:41.372Z,3.65
2023-02-14T00:26:13.903Z,3.72
2023-02-14T00:28:40.290Z,3.22
2023-02-14T00:31:06.810Z,3.75
2023-02-14T00:33:33.223Z,3.50
2023-02-14T00:36:03.036Z,3.60
2023-02-14T00:38:29.445Z,3.33
2023-02-14T00:40:55.897Z,3.30
2023-02-14T00:43:22.355Z,3.55
2023-02-14T00:45:48.753Z,3.30
2023-02-14T00:48:15.196Z,3.17
2023-02-14T00:50:41.748Z,3.20
2023-02-14T00:53:08.114Z,3.90
2023-02-14T00:55:34.498Z,3.40
2023-02-14T00:58:00.857Z,3.20
2023-02-14T01:00:27.382Z,3.47
2023-02-14T01:02:53.776Z,3.50
2023-02-14T01:05:20.255Z,3.70
2023-02-14T01:07:46.619Z,4.03
2023-02-14T01:10:13.053Z,3.90
2023-02-14T01:12:39.577Z,3.58
2023-02-14T01:15:06.253Z,3.35
2023-02-14T01:17:32.679Z,3.20
2023-02-14T01:19:59.151Z,3.38
2023-02-14T01:22:25.688Z,3.40
2023-02-14T01:24:52.116Z,3.42
2023-02-14T01:27:18.477Z,3.55
2023-02-14T01:29:44.886Z,3.50
2023-02-14T01:32:11.373Z,3.78
2023-02-14T01:34:37.786Z,3.53
2023-02-14T01:37:04.143Z,3.50
2023-02-14T01:39:30.564Z,3.30
2023-02-14T01:41:56.974Z,3.70
2023-02-14T01:44:26.333Z,3.30
2023-02-14T01:46:52.923Z,3.63
2023-02-14T01:49:27.037Z,3.65
2023-02-14T01:52:03.873Z,4.10
2023-02-14T01:54:33.486Z,3.70
2023-02-14T01:57:05.410Z,3.95
2023-02-14T01:59:38.118Z,3.97
2023-02-14T02:02:06.000Z,3.40
2023-02-14T02:04:42.962Z,3.70
2023-02-14T02:07:14.379Z,3.65
2023-02-14T02:09:54.814Z,3.35
2023-02-14T02:12:21.746Z,3.65
2023-02-14T02:14:52.724Z,3.53
2023-02-14T02:17:44.297Z,4.05
2023-02-14T02:20:35.495Z,3.95
2023-02-14T02:23:17.115Z,4.05
2023-02-14T02:25:58.718Z,4.13
2023-02-14T02:28:45.610Z,3.90
2023-02-14T02:31:20.820Z,4.70
2023-02-14T02:33:50.084Z,3.83
2023-02-14T02:36:47.143Z,4.45
2023-02-14T02:39:51.112Z,3.97
2023-02-14T02:42:46.856Z,3.92
2023-02-14T02:46:05.915Z,3.95
2023-02-14T02:49:03.455Z,4.28
2023-02-14T02:52:09.782Z,4.55
2023-02-14T02:54:42.420Z,4.32
2023-02-14T02:57:18.806Z,3.47
2023-02-14T02:59:46.497Z,4.25
2023-02-14T03:02:23.978Z,4.22
2023-02-14T03:05:00.182Z,4.13
2023-02-14T03:07:35.976Z,4.60
2023-02-14T03:10:21.820Z,4.70
2023-02-14T03:13:26.309Z,4.13
2023-02-14T03:16:11.781Z,4.22
2023-02-14T03:19:25.615Z,3.92
2023-02-14T03:21:59.136Z,4.68
2023-02-14T03:24:47.376Z,4.82
2023-02-14T03:27:21.811Z,3.97
2023-02-14T03:30:02.502Z,4.47
2023-02-14T03:32:35.780Z,4.20
2023-02-14T03:35:20.725Z,3.88
2023-02-14T03:37:55.084Z,4.07
2023-02-14T03:40:42.492Z,4.10
2023-02-14T03:43:14.341Z,4.10
2023-02-14T03:45:52.080Z,4.35
2023-02-14T03:48:21.729Z,4.00
2023-02-14T03:50:51.544Z,4.55
2023-02-14T03:53:25.880Z,3.90
2023-02-14T03:56:03.407Z,4.93
2023-02-14T03:58:38.924Z,4.05
2023-02-14T04:01:42.678Z,3.85
2023-02-14T04:04:10.702Z,4.15
2023-02-14T04:06:37.111Z,3.80
2023-02-14T04:09:03.652Z,3.97
2023-02-14T04:11:34.953Z,4.03
2023-02-14T04:14:02.546Z,4.18
2023-02-14T04:16:28.995Z,3.58
2023-02-14T04:19:13.743Z,4.50
2023-02-14T04:21:40.207Z,3.78
2023-02-14T04:24:06.620Z,3.85
2023-02-14T04:26:33.038Z,3.95
2023-02-14T04:28:59.452Z,3.67
2023-02-14T04:31:25.839Z,4.10
2023-02-14T04:33:52.323Z,4.20
2023-02-14T04:36:18.810Z,3.58
2023-02-14T04:38:45.226Z,4.00
2023-02-14T04:41:11.651Z,3.42
2023-02-14T04:43:38.085Z,3.85
2023-02-14T04:46:04.570Z,4.22
2023-02-14T04:48:30.934Z,3.80
2023-02-14T04:50:57.441Z,3.95
2023-02-14T04:53:25.131Z,4.22
2023-02-14T04:55:51.525Z,3.70
2023-02-14T04:58:18.331Z,3.33
2023-02-14T05:00:44.955Z,3.72
2023-02-14T05:03:11.465Z,3.50
2023-02-14T05:05:38.136Z,3.60
2023-02-14T05:08:04.548Z,3.72
2023-02-14T05:10:31.019Z,3.60
2023-02-14T05:12:57.377Z,3.80
2023-02-14T05:15:23.818Z,4.10
2023-02-14T05:17:50.244Z,3.42
2023-02-14T05:20:16.795Z,3.60
2023-02-14T05:22:43.207Z,3.90
2023-02-14T05:25:09.631Z,3.90
2023-02-14T05:27:36.055Z,3.85
2023-02-14T05:30:02.570Z,3.50
2023-02-14T05:32:29.068Z,3.83
2023-02-14T05:34:55.689Z,3.97
2023-02-14T05:37:22.090Z,3.78
2023-02-14T05:39:48.501Z,4.25
2023-02-14T05:42:14.970Z,3.40
2023-02-14T05:44:41.329Z,3.85
2023-02-14T05:47:07.742Z,3.30
2023-02-14T05:49:35.518Z,3.78
2023-02-14T05:52:01.957Z,3.67
2023-02-14T05:54:28.470Z,4.10
2023-02-14T05:56:55.162Z,3.55
2023-02-14T05:59:21.698Z,4.10
2023-02-14T06:01:48.264Z,3.42
2023-02-14T06:04:14.858Z,3.70
2023-02-14T06:06:41.262Z,3.83
2023-02-14T06:09:07.717Z,3.85
2023-02-14T06:11:34.091Z,3.72
2023-02-14T06:14:00.452Z,4.25
2023-02-14T06:16:26.900Z,3.88
2023-02-14T06:18:53.352Z,3.97
2023-02-14T06:21:19.819Z,4.10
2023-02-14T06:23:46.386Z,4.25
2023-02-14T06:26:12.773Z,3.47
2023-02-14T06:28:39.598Z,3.92
2023-02-14T06:31:06.188Z,3.88
2023-02-14T06:33:32.597Z,4.88
2023-02-14T06:35:59.151Z,4.13
2023-02-14T06:38:25.547Z,4.70
2023-02-14T06:40:51.938Z,4.45
2023-02-14T06:43:18.403Z,4.63
2023-02-14T06:45:46.482Z,4.35
2023-02-14T06:48:12.858Z,3.85
2023-02-14T06:50:39.326Z,4.57
2023-02-14T06:53:06.218Z,4.13
2023-02-14T06:55:32.796Z,4.20
2023-02-14T06:57:59.214Z,4.13
2023-02-14T07:00:25.981Z,4.38
2023-02-14T07:02:52.685Z,4.13
2023-02-14T07:05:19.322Z,3.95
2023-02-14T07:07:46.234Z,4.50
2023-02-14T07:10:12.974Z,4.05
2023-02-14T07:12:40.530Z,3.75
2023-02-14T07:15:08.929Z,3.72
2023-02-14T07:17:35.473Z,3.65
2023-02-14T07:20:03.090Z,4.13
2023-02-14T07:22:30.408Z,4.00
2023-02-14T07:24:57.122Z,4.07
2023-02-14T07:27:23.574Z,4.25
2023-02-14T07:29:50.076Z,3.70
2023-02-14T07:32:16.665Z,4.10
2023-02-14T07:34:43.263Z,3.95
2023-02-14T07:37:09.639Z,4.38
2023-02-14T07:39:36.052Z,3.50
2023-02-14T07:42:02.442Z,3.47
2023-02-14T07:44:28.877Z,4.55
2023-02-14T07:46:55.438Z,3.80
2023-02-14T07:49:22.353Z,3.90
2023-02-14T07:51:48.821Z,4.18
2023-02-14T07:54:15.356Z,3.38
2023-02-14T07:56:41.812Z,3.78
2023-02-14T07:59:08.205Z,3.75
2023-02-14T08:01:34.621Z,3.35
2023-02-14T08:04:01.015Z,3.30
2023-02-14T08:06:27.991Z,3.80
2023-02-14T08:08:54.524Z,3.60
2023-02-14T08:11:39.567Z,3.58
2023-02-14T08:14:07.287Z,3.35
2023-02-14T08:16:34.599Z,4.18
2023-02-14T08:19:01.879Z,3.95
2023-02-14T08:21:28.651Z,3.30
2023-02-14T08:23:55.016Z,3.65
2023-02-14T08:26:21.398Z,3.45
2023-02-14T08:28:47.896Z,3.63
2023-02-14T08:31:34.504Z,3.90
2023-02-14T08:34:01.888Z,3.17
2023-02-14T08:36:28.276Z,3.60
2023-02-14T08:38:55.676Z,3.42
2023-02-14T08:41:22.091Z,3.85
2023-02-14T08:43:48.549Z,3.72
2023-02-14T08:46:16.734Z,3.13
2023-02-14T08:48:44.202Z,3.50
2023-02-14T08:51:13.484Z,3.40
2023-02-14T08:53:41.726Z,3.50
2023-02-14T08:56:13.232Z,3.53
2023-02-14T08:58:40.376Z,3.47
2023-02-14T09:01:17.934Z,3.33
2023-02-14T09:03:44.899Z,3.72
2023-02-14T09:06:14.513Z,4.75
2023-02-14T09:08:40.993Z,4.55
2023-02-14T09:11:15.678Z,4.20
2023-02-14T09:13:42.913Z,5.15
2023-02-14T09:16:11.487Z,5.25
2023-02-14T09:18:38.406Z,4.93
2023-02-14T09:21:14.237Z,5.88
2023-02-14T09:23:40.760Z,5.60
2023-02-14T09:26:09.733Z,5.57
2023-02-14T09:28:36.589Z,5.45
2023-02-14T09:31:13.675Z,6.35
2023-02-14T09:33:40.649Z,6.63
2023-02-14T09:36:19.395Z,6.70
2023-02-14T09:38:46.842Z,7.22
2023-02-14T09:41:41.931Z,7.38
2023-02-14T09:44:16.872Z,8.63
2023-02-14T09:46:50.347Z,7.93
2023-02-14T09:49:22.596Z,8.32
2023-02-14T09:51:53.193Z,8.25
2023-02-14T09:54:26.216Z,7.82
2023-02-14T09:57:03.875Z,8.57
2023-02-14T09:59:48.742Z,8.15
2023-02-14T10:02:30.309Z,8.68
2023-02-14T10:05:26.326Z,8.35
2023-02-14T10:07:57.663Z,8.45
2023-02-14T10:10:40.840Z,8.93
2023-02-14T10:13:29.763Z,8.93
2023-02-14T10:16:16.758Z,8.35
2023-02-14T10:21:23.718Z,8.93
2023-02-14T10:24:04.189Z,8.98
2023-02-14T10:26:37.143Z,9.00
2023-02-14T10:29:06.659Z,9.13
2023-02-14T10:31:55.619Z,8.65
2023-02-14T10:34:48.010Z,9.20
2023-02-14T10:37:35.587Z,9.45
2023-02-14T10:40:25.051Z,9.50
2023-02-14T10:43:28.004Z,8.75
2023-02-14T10:46:19.803Z,7.65
2023-02-14T10:49:02.757Z,7.65
2023-02-14T10:51:46.088Z,8.30
2023-02-14T10:54:18.200Z,8.60
2023-02-14T10:56:50.348Z,8.77
2023-02-14T10:59:49.473Z,8.18
2023-02-14T11:02:18.405Z,8.52
2023-02-14T11:04:47.125Z,9.35
2023-02-14T11:07:15.263Z,9.15
2023-02-14T11:09:41.755Z,8.80
2023-02-14T11:12:09.062Z,7.95
2023-02-14T11:14:39.055Z,8.57
2023-02-14T11:17:28.799Z,8.18
2023-02-14T11:20:20.404Z,8.40
2023-02-14T11:22:46.852Z,8.00
2023-02-14T11:25:30.386Z,8.93
2023-02-14T11:27:56.724Z,8.80
2023-02-14T11:30:30.162Z,8.30
2023-02-14T11:32:57.188Z,7.80
2023-02-14T11:35:30.479Z,8.18
2023-02-14T11:37:58.094Z,7.32
2023-02-14T11:40:42.354Z,8.48
2023-02-14T11:43:15.023Z,7.65
2023-02-14T11:45:47.404Z,8.63
2023-02-14T11:48:31.464Z,8.25
2023-02-14T11:51:14.901Z,7.40
2023-02-14T11:53:48.849Z,8.63
2023-02-14T11:56:18.045Z,7.10
2023-02-14T11:58:44.395Z,8.07
2023-02-14T12:01:14.084Z,7.82
2023-02-14T12:03:46.776Z,7.82
2023-02-14T12:06:22.815Z,8.63
2023-02-14T12:08:49.315Z,6.93
2023-02-14T12:11:23.577Z,7.10
2023-02-14T12:13:55.099Z,7.32
2023-02-14T12:16:28.694Z,6.85
2023-02-14T12:19:07.444Z,7.68
2023-02-14T12:21:42.094Z,7.93
2023-02-14T12:24:35.444Z,7.82
2023-02-14T12:27:17.111Z,7.18
2023-02-14T12:29:52.200Z,6.88
2023-02-14T12:32:23.282Z,7.97
2023-02-14T12:34:51.501Z,7.75
2023-02-14T12:37:34.738Z,7.65
2023-02-14T12:40:06.393Z,7.82
2023-02-14T12:42:53.763Z,7.07
2023-02-14T12:45:33.671Z,8.10
2023-02-14T12:48:21.474Z,6.63
2023-02-14T12:51:06.375Z,6.57
2023-02-14T12:53:51.622Z,7.03
2023-02-14T12:56:45.103Z,7.00
2023-02-14T12:59:42.396Z,7.00
2023-02-14T13:02:43.364Z,8.00
2023-02-14T13:05:45.638Z,6.60
2023-02-14T13:08:14.920Z,6.88
2023-02-14T13:11:00.920Z,6.60
2023-02-14T13:13:44.255Z,6.25
2023-02-14T13:16:30.942Z,7.53
2023-02-14T13:19:14.353Z,6.18
2023-02-14T13:21:42.836Z,6.70
2023-02-14T13:24:23.526Z,7.10
2023-02-14T13:26:55.271Z,6.22
2023-02-14T13:29:28.583Z,6.50
2023-02-14T13:32:01.982Z,7.50
2023-02-14T13:34:35.366Z,6.00
2023-02-14T13:37:05.790Z,5.95
2023-02-14T13:39:54.784Z,5.70
2023-02-14T13:42:50.149Z,6.38
2023-02-14T13:45:38.234Z,5.75
2023-02-14T13:48:17.895Z,6.18
2023-02-14T13:51:03.368Z,5.32
2023-02-14T13:53:43.855Z,5.30
2023-02-14T13:56:13.244Z,6.38
2023-02-14T13:58:53.777Z,6.30
2023-02-14T14:01:33.989Z,6.22
2023-02-14T14:04:04.561Z,6.00
2023-02-14T14:07:00.255Z,5.85
2023-02-14T14:09:42.062Z,5.82
2023-02-14T14:12:29.650Z,5.45
2023-02-14T14:15:08.216Z,6.13
2023-02-14T14:17:37.537Z,6.10
2023-02-14T14:20:26.583Z,5.95
2023-02-14T14:22:56.074Z,5.90
2023-02-14T14:25:38.727Z,5.85
2023-02-14T14:28:12.874Z,5.38
2023-02-14T14:30:44.739Z,5.97
2023-02-14T14:33:26.353Z,5.85
2023-02-14T14:36:08.810Z,6.50
2023-02-14T14:38:47.229Z,5.63
2023-02-14T14:41:13.818Z,5.72
2023-02-14T14:43:40.916Z,6.15
2023-02-14T14:46:15.785Z,6.40
2023-02-14T14:48:50.053Z,5.22
2023-02-14T14:51:25.693Z,5.40
2023-02-14T14:54:07.284Z,5.30
2023-02-14T14:56:44.895Z,5.47
2023-02-14T14:59:39.211Z,5.95
2023-02-14T15:02:31.872Z,4.72
2023-02-14T15:05:30.807Z,5.15
2023-02-14T15:07:57.775Z,5.50
2023-02-14T15:10:28.759Z,4.97
2023-02-14T15:13:16.688Z,5.28
2023-02-14T15:15:49.152Z,5.35
2023-02-14T15:18:17.062Z,5.38
2023-02-14T15:20:49.674Z,5.00
2023-02-14T15:23:20.214Z,4.65
2023-02-14T15:25:49.312Z,5.70
2023-02-14T15:28:36.993Z,5.03
2023-02-14T15:31:06.181Z,5.57
2023-02-14T15:33:34.122Z,5.32
2023-02-14T15:36:15.494Z,5.22
2023-02-14T15:38:42.664Z,5.18
2023-02-14T15:41:10.095Z,5.53
2023-02-14T15:43:40.851Z,5.78
2023-02-14T15:46:19.773Z,5.20
2023-02-14T15:48:47.464Z,5.22
2023-02-14T15:51:26.275Z,5.78
2023-02-14T15:54:31.895Z,5.00
2023-02-14T15:56:59.165Z,5.60
2023-02-14T15:59:31.807Z,5.30
2023-02-14T16:02:28.175Z,4.97
2023-02-14T16:04:55.279Z,4.72
2023-02-14T16:07:28.525Z,5.28
2023-02-14T16:10:24.276Z,5.93
2023-02-14T16:12:59.230Z,5.20
2023-02-14T16:15:29.260Z,5.47
2023-02-14T16:17:55.891Z,5.53
2023-02-14T16:20:34.353Z,6.07
2023-02-14T16:23:22.101Z,5.90
2023-02-14T16:25:49.271Z,5.55
2023-02-14T16:28:16.841Z,6.50
2023-02-14T16:30:45.443Z,6.25
2023-02-14T16:33:22.277Z,5.50
2023-02-14T16:35:49.510Z,5.63
2023-02-14T16:38:19.080Z,5.97
2023-02-14T16:40:51.907Z,6.68
2023-02-14T16:43:20.058Z,6.72
2023-02-14T16:45:47.452Z,8.07
2023-02-14T16:48:15.914Z,6.82
2023-02-14T16:50:44.443Z,7.57
2023-02-14T16:53:17.900Z,6.43
2023-02-14T16:55:44.351Z,6.95
2023-02-14T16:58:10.864Z,6.78
2023-02-14T17:00:39.416Z,6.63
2023-02-14T17:03:10.714Z,6.93
2023-02-14T17:05:39.119Z,7.40
2023-02-14T17:08:07.869Z,6.70
2023-02-14T17:10:34.996Z,7.25
2023-02-14T17:13:04.004Z,6.55
2023-02-14T17:15:31.220Z,6.53
2023-02-14T17:18:02.864Z,7.28
2023-02-14T17:20:30.193Z,5.88
2023-02-14T17:22:57.644Z,6.43
2023-02-14T17:25:24.078Z,7.30
2023-02-14T17:27:50.500Z,6.70
2023-02-14T17:30:17.748Z,6.80
2023-02-14T17:32:44.331Z,6.90
2023-02-14T17:35:11.863Z,6.13
2023-02-14T17:37:46.273Z,6.78
2023-02-14T17:40:14.441Z,7.15
2023-02-14T17:42:41.978Z,6.75
2023-02-14T17:45:11.833Z,6.57
2023-02-14T17:47:40.684Z,7.07
2023-02-14T17:50:07.831Z,7.55
2023-02-14T17:52:35.124Z,7.15
2023-02-14T17:55:01.771Z,6.93
2023-02-14T17:57:28.470Z,7.25
2023-02-14T17:59:54.996Z,7.13
2023-02-14T18:02:21.410Z,7.10
2023-02-14T18:04:48.369Z,6.82
2023-02-14T18:07:14.864Z,6.70
2023-02-14T18:09:41.389Z,6.78
2023-02-14T18:12:10.345Z,7.05
2023-02-14T18:14:40.016Z,7.18
2023-02-14T18:17:06.460Z,8.00
2023-02-14T18:19:33.162Z,7.07
2023-02-14T18:21:59.861Z,7.60
2023-02-14T18:24:26.440Z,8.55
2023-02-14T18:26:53.504Z,7.65
2023-02-14T18:29:20.297Z,8.07
2023-02-14T18:31:47.116Z,8.40
2023-02-14T18:34:13.696Z,7.88
2023-02-14T18:36:41.801Z,7.95
2023-02-14T18:39:09.306Z,7.68
2023-02-14T18:41:35.906Z,7.78
2023-02-14T18:44:02.380Z,8.55
2023-02-14T18:46:35.408Z,8.52
2023-02-14T18:49:03.995Z,8.48
2023-02-14T18:51:33.620Z,7.65
2023-02-14T18:54:02.213Z,7.93
2023-02-14T18:56:31.484Z,7.85
2023-02-14T18:59:04.062Z,7.82
2023-02-14T19:01:33.531Z,7.93
2023-02-14T19:04:01.202Z,8.50
2023-02-14T19:06:29.635Z,8.18
2023-02-14T19:08:56.944Z,7.80
2023-02-14T19:11:25.887Z,7.45
2023-02-14T19:13:54.382Z,7.57
2023-02-14T19:16:26.814Z,8.25
2023-02-14T19:18:54.172Z,7.82
2023-02-14T19:21:26.559Z,7.10
2023-02-14T19:23:56.037Z,7.82
2023-02-14T19:26:25.170Z,7.35
2023-02-14T19:28:56.747Z,7.38
2023-02-14T19:31:24.555Z,7.40
2023-02-14T19:33:51.448Z,6.82
2023-02-14T19:36:19.544Z,7.97
2023-02-14T19:38:49.196Z,7.50
2023-02-14T19:41:18.712Z,8.52
2023-02-14T19:43:46.021Z,6.60
2023-02-14T19:46:14.134Z,8.00
2023-02-14T19:48:41.065Z,7.68
2023-02-14T19:51:08.044Z,7.43
2023-02-14T19:53:35.329Z,7.22
2023-02-14T19:56:01.873Z,6.80
2023-02-14T19:58:28.262Z,7.45
2023-02-14T20:00:59.054Z,7.50
2023-02-14T20:03:26.346Z,6.30
2023-02-14T20:05:52.772Z,7.43
2023-02-14T20:08:19.221Z,8.15
2023-02-14T20:10:45.750Z,6.55
2023-02-14T20:13:12.272Z,8.43
2023-02-14T20:15:39.920Z,7.38
2023-02-14T20:18:06.578Z,7.68
2023-02-14T20:20:52.958Z,8.23
2023-02-14T20:23:19.730Z,7.63
2023-02-14T20:25:46.192Z,7.95
2023-02-14T20:28:12.587Z,7.18
2023-02-14T20:30:40.079Z,8.10
2023-02-14T20:33:06.711Z,7.93
2023-02-14T20:35:37.996Z,7.57
2023-02-14T20:38:07.546Z,7.93
2023-02-14T20:40:39.153Z,7.07
2023-02-14T20:43:05.906Z,8.02
2023-02-14T20:45:32.918Z,8.23
2023-02-14T20:48:03.303Z,7.75
2023-02-14T20:50:31.318Z,8.10
2023-02-14T20:52:58.181Z,7.97
2023-02-14T20:55:27.068Z,7.07
2023-02-14T20:57:53.918Z,7.00
2023-02-14T21:00:20.490Z,7.90
2023-02-14T21:02:46.894Z,7.90
2023-02-14T21:05:18.325Z,7.28
2023-02-14T21:07:44.702Z,7.78
2023-02-14T21:10:11.211Z,7.47
2023-02-14T21:12:38.518Z,7.28
2023-02-14T21:15:06.905Z,7.78
2023-02-14T21:17:33.909Z,8.27
2023-02-14T21:20:00.349Z,6.95
2023-02-14T21:22:26.729Z,7.53
2023-02-14T21:24:53.127Z,7.72
2023-02-14T21:27:19.619Z,7.68
2023-02-14T21:29:46.113Z,7.40
2023-02-14T21:32:12.724Z,7.35
2023-02-14T21:34:39.359Z,7.40
2023-02-14T21:37:05.906Z,8.15
2023-02-14T21:39:35.639Z,7.72
2023-02-14T21:42:02.357Z,8.07
2023-02-14T21:44:47.620Z,7.38
2023-02-14T21:47:14.146Z,7.28
2023-02-14T21:49:59.198Z,8.30
2023-02-14T21:52:25.701Z,8.30
2023-02-14T21:54:52.476Z,7.43
2023-02-14T21:57:18.993Z,7.68
2023-02-14T21:59:45.394Z,7.45
2023-02-14T22:02:12.245Z,8.18
2023-02-14T22:04:38.674Z,7.57
2023-02-14T22:07:05.121Z,8.02
2023-02-14T22:09:31.606Z,7.78
2023-02-14T22:11:58.004Z,8.48
2023-02-14T22:14:24.414Z,8.25
2023-02-14T22:16:50.869Z,7.75
2023-02-14T22:19:17.266Z,7.50
2023-02-14T22:21:43.866Z,7.95
2023-02-14T22:24:10.450Z,8.55
2023-02-14T22:26:43.460Z,7.80
2023-02-14T22:29:11.752Z,7.60
2023-02-14T22:31:43.409Z,7.32
2023-02-14T22:34:12.427Z,7.68
2023-02-14T22:36:38.819Z,7.80
2023-02-14T22:39:05.784Z,8.40
2023-02-14T22:41:37.469Z,7.82
2023-02-14T22:44:04.862Z,7.75
2023-02-14T22:46:31.432Z,7.88
2023-02-14T22:48:58.419Z,8.20
2023-02-14T22:51:32.898Z,7.40
2023-02-14T22:54:18.615Z,7.95
2023-02-14T22:56:47.349Z,7.95
2023-02-14T22:59:23.636Z,7.78
2023-02-14T23:01:51.925Z,8.60
2023-02-14T23:04:21.682Z,7.68
2023-02-14T23:06:48.590Z,8.25
2023-02-14T23:09:15.496Z,7.55
2023-02-14T23:11:43.823Z,7.53
2023-02-14T23:14:33.866Z,8.02
2023-02-14T23:17:18.697Z,7.82
2023-02-14T23:20:04.648Z,7.05
2023-02-14T23:22:32.398Z,7.28
2023-02-14T23:25:03.481Z,8.07
2023-02-14T23:27:43.083Z,7.15
2023-02-14T23:30:13.071Z,7.30
2023-02-14T23:32:39.556Z,7.45
2023-02-14T23:35:06.159Z,7.40
2023-02-14T23:37:33.515Z,7.40
2023-02-14T23:39:59.948Z,6.82
2023-02-14T23:42:26.380Z,7.63
2023-02-14T23:44:52.819Z,7.63
2023-02-14T23:47:19.295Z,6.90
2023-02-14T23:49:46.054Z,7.60
2023-02-14T23:52:13.654Z,7.68
2023-02-14T23:54:40.503Z,7.20
2023-02-14T23:57:08.048Z,7.20
2023-02-14T23:59:34.598Z,7.43
